Time;durP1;ratioP1;P1;durP2;ratioP2;P2;SDS_P1;SDS_P2;PMS_P1;PMS_P2;Temp;Humidity;BMP_temperature;BMP_pressure;BME280_temperature;BME280_humidity;BME280_pressure;Samples;Min_cycle;Max_cycle;Signal;HPM_P1;HPM_P2
2020/11/16 00:01:46;;;;;;;3.58;2.11;;;;;;;20.39;57.27;99822.95;;;;-46
2020/11/16 00:04:46;;;;;;;2.13;1.93;;;;;;;20.38;57.27;99828.89;;;;-46
2020/11/16 00:07:46;;;;;;;2.01;1.84;;;;;;;20.36;57.29;99819.00;;;;-46
2020/11/16 00:10:46;;;;;;;2.09;1.84;;;;;;;20.35;57.29;99829.57;;;;-46
2020/11/16 00:13:46;;;;;;;2.09;1.89;;;;;;;20.33;57.31;99841.37;;;;-46
2020/11/16 00:16:46;;;;;;;1.99;1.79;;;;;;;20.33;57.30;99842.29;;;;-46
2020/11/16 00:19:46;;;;;;;2.13;1.93;;;;;;;20.30;57.29;99844.02;;;;-50
2020/11/16 00:22:46;;;;;;;1.95;1.80;;;;;;;20.30;57.34;99856.64;;;;-50
2020/11/16 00:25:46;;;;;;;1.97;1.87;;;;;;;20.28;57.33;99845.75;;;;-50
2020/11/16 00:28:46;;;;;;;2.20;2.00;;;;;;;20.27;57.30;99846.25;;;;-50
2020/11/16 00:31:46;;;;;;;1.81;1.71;;;;;;;20.27;57.31;99845.02;;;;-50
2020/11/16 00:34:46;;;;;;;2.14;1.73;;;;;;;20.25;57.31;99843.89;;;;-50
2020/11/16 00:37:46;;;;;;;1.79;1.69;;;;;;;20.24;57.37;99862.78;;;;-50
2020/11/16 00:40:46;;;;;;;2.15;1.91;;;;;;;20.23;57.32;99860.81;;;;-50
2020/11/16 00:43:46;;;;;;;1.90;1.80;;;;;;;20.22;57.38;99873.21;;;;-50
2020/11/16 00:46:46;;;;;;;1.97;1.82;;;;;;;20.21;57.41;99888.50;;;;-50
2020/11/16 00:49:46;;;;;;;2.23;1.80;;;;;;;20.19;57.41;99891.12;;;;-50
2020/11/16 00:52:46;;;;;;;1.93;1.79;;;;;;;20.18;57.44;99906.99;;;;-50
2020/11/16 00:55:46;;;;;;;2.15;1.89;;;;;;;20.17;57.40;99908.55;;;;-50
2020/11/16 00:58:46;;;;;;;2.00;1.79;;;;;;;20.16;57.44;99915.14;;;;-57
2020/11/16 01:01:46;;;;;;;2.19;1.89;;;;;;;20.15;57.41;99918.87;;;;-58
2020/11/16 01:04:46;;;;;;;1.82;1.70;;;;;;;20.13;57.40;99921.25;;;;-58
2020/11/16 01:07:46;;;;;;;1.97;1.81;;;;;;;20.13;57.47;99919.05;;;;-59
2020/11/16 01:10:46;;;;;;;2.00;1.80;;;;;;;20.11;57.49;99925.49;;;;-58
2020/11/16 01:13:46;;;;;;;1.91;1.81;;;;;;;20.10;57.46;99932.56;;;;-50
2020/11/16 01:16:46;;;;;;;2.09;1.76;;;;;;;20.08;57.47;99943.14;;;;-50
2020/11/16 01:19:46;;;;;;;1.79;1.68;;;;;;;20.07;57.47;99953.83;;;;-51
2020/11/16 01:22:46;;;;;;;2.11;1.78;;;;;;;20.07;57.46;99965.87;;;;-50
2020/11/16 01:25:46;;;;;;;1.70;1.60;;;;;;;20.05;57.46;99968.39;;;;-50
2020/11/16 01:28:46;;;;;;;1.87;1.74;;;;;;;20.04;57.46;99971.71;;;;-50
2020/11/16 01:31:46;;;;;;;1.79;1.69;;;;;;;20.03;57.59;99981.41;;;;-51
2020/11/16 01:34:46;;;;;;;1.83;1.69;;;;;;;20.03;57.54;99981.09;;;;-57
2020/11/16 01:37:46;;;;;;;1.85;1.70;;;;;;;20.02;57.58;99988.00;;;;-58
2020/11/16 01:40:46;;;;;;;2.05;1.87;;;;;;;20.00;57.55;99989.05;;;;-58
2020/11/16 01:43:46;;;;;;;1.71;1.61;;;;;;;19.99;57.55;99989.06;;;;-57
2020/11/16 01:46:48;;;;;;;1.70;1.60;;;;;;;19.98;57.59;99992.73;;;;-57
2020/11/16 01:49:46;;;;;;;1.85;1.70;;;;;;;19.98;57.60;99992.72;;;;-58
2020/11/16 01:52:46;;;;;;;1.70;1.60;;;;;;;19.96;57.57;99997.35;;;;-57
2020/11/16 01:55:46;;;;;;;2.05;1.69;;;;;;;19.96;57.57;100000.94;;;;-57
2020/11/16 01:58:46;;;;;;;1.75;1.65;;;;;;;19.94;57.59;100010.16;;;;-59
2020/11/16 02:01:46;;;;;;;1.70;1.60;;;;;;;19.94;57.57;100016.72;;;;-59
2020/11/16 02:04:46;;;;;;;1.77;1.67;;;;;;;19.93;57.66;100019.42;;;;-57
2020/11/16 02:07:46;;;;;;;1.77;1.59;;;;;;;19.92;57.65;100010.06;;;;-50
2020/11/16 02:10:46;;;;;;;1.78;1.68;;;;;;;19.91;57.66;100005.03;;;;-58
2020/11/16 02:13:46;;;;;;;1.60;1.50;;;;;;;19.90;57.62;100005.21;;;;-57
2020/11/16 02:16:46;;;;;;;1.93;1.83;;;;;;;19.89;57.67;100004.95;;;;-58
2020/11/16 02:19:46;;;;;;;1.75;1.65;;;;;;;19.89;57.62;100012.03;;;;-59
2020/11/16 02:22:46;;;;;;;1.71;1.61;;;;;;;19.88;57.65;100023.11;;;;-57
2020/11/16 02:25:46;;;;;;;2.58;1.54;;;;;;;19.87;57.68;100028.21;;;;-50
2020/11/16 02:28:47;;;;;;;1.60;1.50;;;;;;;19.87;57.69;100041.63;;;;-49
2020/11/16 02:31:46;;;;;;;1.65;1.55;;;;;;;19.85;57.68;100039.67;;;;-50
2020/11/16 02:34:46;;;;;;;1.74;1.60;;;;;;;19.84;57.68;100055.14;;;;-50
2020/11/16 02:37:46;;;;;;;1.91;1.73;;;;;;;19.84;57.70;100065.63;;;;-50
2020/11/16 02:40:46;;;;;;;1.62;1.52;;;;;;;19.83;57.69;100068.95;;;;-50
2020/11/16 02:43:46;;;;;;;1.72;1.62;;;;;;;19.83;57.72;100071.00;;;;-50
2020/11/16 02:46:46;;;;;;;1.75;1.63;;;;;;;19.82;57.70;100073.93;;;;-50
2020/11/16 02:49:46;;;;;;;1.83;1.71;;;;;;;19.81;57.71;100065.05;;;;-50
2020/11/16 02:52:46;;;;;;;1.70;1.60;;;;;;;19.80;57.74;100071.98;;;;-50
2020/11/16 02:55:46;;;;;;;1.68;1.58;;;;;;;19.80;57.72;100069.79;;;;-50
2020/11/16 02:58:46;;;;;;;1.60;1.50;;;;;;;19.79;57.65;100077.42;;;;-46
2020/11/16 03:01:46;;;;;;;1.80;1.54;;;;;;;19.78;57.65;100080.84;;;;-46
2020/11/16 03:04:46;;;;;;;1.58;1.48;;;;;;;19.77;57.78;100081.72;;;;-46
2020/11/16 03:07:46;;;;;;;1.60;1.50;;;;;;;19.77;57.71;100087.99;;;;-58
2020/11/16 03:10:46;;;;;;;1.68;1.58;;;;;;;19.76;57.68;100085.80;;;;-57
2020/11/16 03:13:46;;;;;;;1.67;1.57;;;;;;;19.75;57.68;100085.78;;;;-57
2020/11/16 03:16:46;;;;;;;1.59;1.49;;;;;;;19.75;57.73;100083.77;;;;-46
2020/11/16 03:19:46;;;;;;;1.67;1.57;;;;;;;19.74;57.72;100088.81;;;;-46
2020/11/16 03:22:46;;;;;;;1.70;1.60;;;;;;;19.74;57.76;100094.84;;;;-46
2020/11/16 03:25:46;;;;;;;1.58;1.48;;;;;;;19.73;57.74;100093.03;;;;-46
2020/11/16 03:28:46;;;;;;;1.62;1.50;;;;;;;19.72;57.74;100097.11;;;;-46
2020/11/16 03:31:46;;;;;;;1.60;1.50;;;;;;;19.72;57.78;100098.01;;;;-50
2020/11/16 03:34:46;;;;;;;1.58;1.47;;;;;;;19.71;57.72;100100.99;;;;-50
2020/11/16 03:37:46;;;;;;;1.60;1.50;;;;;;;19.71;57.75;100110.34;;;;-50
2020/11/16 03:40:46;;;;;;;1.65;1.53;;;;;;;19.69;57.77;100114.38;;;;-50
2020/11/16 03:43:46;;;;;;;1.60;1.50;;;;;;;19.68;57.74;100113.33;;;;-50
2020/11/16 03:46:46;;;;;;;1.81;1.60;;;;;;;19.68;57.77;100115.37;;;;-50
2020/11/16 03:49:50;;;;;;;1.67;1.50;;;;;;;19.68;57.77;100119.43;;;;-50
2020/11/16 03:52:46;;;;;;;1.71;1.45;;;;;;;19.68;57.81;100124.48;;;;-50
2020/11/16 03:55:46;;;;;;;1.61;1.51;;;;;;;19.67;57.79;100131.13;;;;-50
2020/11/16 03:58:46;;;;;;;1.64;1.54;;;;;;;19.66;57.84;100141.55;;;;-50
2020/11/16 04:01:46;;;;;;;1.54;1.44;;;;;;;19.66;57.80;100146.91;;;;-50
2020/11/16 04:04:46;;;;;;;1.73;1.63;;;;;;;19.64;57.74;100141.14;;;;-52
2020/11/16 04:07:46;;;;;;;1.65;1.55;;;;;;;19.63;57.81;100141.63;;;;-52
2020/11/16 04:10:46;;;;;;;1.63;1.50;;;;;;;19.62;57.83;100145.36;;;;-51
2020/11/16 04:13:46;;;;;;;1.55;1.45;;;;;;;19.62;57.80;100145.13;;;;-51
2020/11/16 04:16:46;;;;;;;1.61;1.51;;;;;;;19.61;57.84;100146.81;;;;-52
2020/11/16 04:19:46;;;;;;;1.60;1.50;;;;;;;19.61;57.77;100149.66;;;;-51
2020/11/16 04:22:46;;;;;;;1.58;1.48;;;;;;;19.60;57.80;100149.09;;;;-52
2020/11/16 04:25:46;;;;;;;1.50;1.40;;;;;;;19.60;57.81;100149.42;;;;-51
2020/11/16 04:28:46;;;;;;;1.65;1.55;;;;;;;19.59;57.86;100146.64;;;;-52
2020/11/16 04:31:46;;;;;;;1.70;1.51;;;;;;;19.58;57.81;100143.48;;;;-52
2020/11/16 04:34:46;;;;;;;1.65;1.55;;;;;;;19.58;57.83;100138.20;;;;-51
2020/11/16 04:37:46;;;;;;;1.56;1.46;;;;;;;19.57;57.82;100140.09;;;;-52
2020/11/16 04:40:46;;;;;;;1.55;1.45;;;;;;;19.56;57.82;100141.36;;;;-52
2020/11/16 04:43:46;;;;;;;1.40;1.30;;;;;;;19.56;57.85;100146.33;;;;-51
2020/11/16 04:46:47;;;;;;;1.85;1.47;;;;;;;19.55;57.84;100145.13;;;;-51
2020/11/16 04:49:46;;;;;;;1.62;1.33;;;;;;;19.55;57.85;100150.80;;;;-52
2020/11/16 04:52:46;;;;;;;1.50;1.40;;;;;;;19.55;57.90;100153.30;;;;-52
2020/11/16 04:55:46;;;;;;;1.60;1.50;;;;;;;19.54;57.90;100158.52;;;;-52
2020/11/16 04:58:46;;;;;;;1.55;1.45;;;;;;;19.53;57.79;100178.77;;;;-59
2020/11/16 05:01:46;;;;;;;1.53;1.42;;;;;;;19.54;57.86;100186.97;;;;-59
2020/11/16 05:04:46;;;;;;;1.55;1.45;;;;;;;19.53;57.87;100188.92;;;;-51
2020/11/16 05:07:46;;;;;;;1.60;1.50;;;;;;;19.52;57.85;100199.63;;;;-52
2020/11/16 05:10:46;;;;;;;1.83;1.39;;;;;;;19.52;57.93;100207.20;;;;-51
2020/11/16 05:13:46;;;;;;;1.50;1.40;;;;;;;19.51;57.92;100209.81;;;;-51
2020/11/16 05:16:46;;;;;;;1.51;1.40;;;;;;;19.51;57.86;100214.42;;;;-51
2020/11/16 05:19:46;;;;;;;1.52;1.40;;;;;;;19.50;57.94;100219.86;;;;-51
2020/11/16 05:22:46;;;;;;;1.60;1.50;;;;;;;19.49;57.90;100219.95;;;;-51
2020/11/16 05:25:47;;;;;;;1.60;1.50;;;;;;;19.48;57.83;100216.69;;;;-51
2020/11/16 05:28:46;;;;;;;1.50;1.40;;;;;;;19.48;57.87;100218.48;;;;-51
2020/11/16 05:31:46;;;;;;;1.54;1.44;;;;;;;19.48;57.86;100221.48;;;;-51
2020/11/16 05:34:46;;;;;;;1.53;1.43;;;;;;;19.47;57.89;100218.00;;;;-51
2020/11/16 05:37:46;;;;;;;1.50;1.40;;;;;;;19.47;57.90;100219.95;;;;-51
2020/11/16 05:40:46;;;;;;;1.58;1.48;;;;;;;19.47;57.88;100217.03;;;;-59
2020/11/16 05:43:46;;;;;;;5.90;1.51;;;;;;;19.46;57.85;100215.06;;;;-64
2020/11/16 05:46:46;;;;;;;4.81;1.90;;;;;;;19.37;56.15;100217.56;;;;-60
2020/11/16 05:49:46;;;;;;;7.55;2.23;;;;;;;19.24;55.73;100219.65;;;;-62
2020/11/16 05:52:46;;;;;;;9.20;2.58;;;;;;;19.12;55.20;100223.91;;;;-58
2020/11/16 05:55:46;;;;;;;6.52;2.42;;;;;;;19.03;55.00;100234.27;;;;-59
2020/11/16 05:58:46;;;;;;;8.78;2.53;;;;;;;19.10;55.58;100233.72;;;;-58
2020/11/16 06:01:46;;;;;;;6.55;2.44;;;;;;;19.15;56.14;100237.95;;;;-58
2020/11/16 06:04:46;;;;;;;6.56;2.37;;;;;;;19.19;56.43;100247.31;;;;-60
2020/11/16 06:07:46;;;;;;;7.26;2.37;;;;;;;19.21;56.58;100256.19;;;;-60
2020/11/16 06:10:46;;;;;;;6.37;2.25;;;;;;;19.22;56.64;100261.64;;;;-60
2020/11/16 06:13:46;;;;;;;5.36;2.23;;;;;;;19.23;56.58;100276.90;;;;-59
2020/11/16 06:16:46;;;;;;;6.45;2.17;;;;;;;19.25;56.73;100287.97;;;;-60
2020/11/16 06:19:46;;;;;;;6.45;2.29;;;;;;;19.26;56.73;100287.06;;;;-50
2020/11/16 06:22:46;;;;;;;4.53;2.08;;;;;;;19.26;56.76;100290.64;;;;-52
2020/11/16 06:25:46;;;;;;;7.25;2.53;;;;;;;19.25;56.85;100291.53;;;;-51
2020/11/16 06:28:46;;;;;;;5.82;2.26;;;;;;;19.26;56.88;100293.19;;;;-52
2020/11/16 06:31:46;;;;;;;4.57;1.92;;;;;;;19.26;56.86;100303.91;;;;-51
2020/11/16 06:34:46;;;;;;;5.69;2.19;;;;;;;19.26;56.97;100307.80;;;;-52
2020/11/16 06:37:46;;;;;;;4.82;2.18;;;;;;;19.27;57.01;100318.69;;;;-53
2020/11/16 06:40:46;;;;;;;5.65;2.16;;;;;;;19.26;57.01;100319.66;;;;-53
2020/11/16 06:43:46;;;;;;;4.76;2.17;;;;;;;19.27;57.02;100327.22;;;;-60
2020/11/16 06:46:46;;;;;;;4.36;2.01;;;;;;;19.25;57.10;100330.69;;;;-60
2020/11/16 06:49:46;;;;;;;6.00;2.34;;;;;;;19.26;57.15;100335.67;;;;-60
2020/11/16 06:52:48;;;;;;;4.32;1.81;;;;;;;19.25;57.18;100346.13;;;;-60
2020/11/16 06:55:46;;;;;;;3.23;1.95;;;;;;;19.24;57.12;100351.50;;;;-59
2020/11/16 06:58:46;;;;;;;5.17;2.09;;;;;;;19.25;57.18;100360.27;;;;-59
2020/11/16 07:01:46;;;;;;;4.52;2.07;;;;;;;19.25;57.21;100363.28;;;;-59
2020/11/16 07:04:46;;;;;;;4.45;1.97;;;;;;;19.25;57.18;100371.00;;;;-58
2020/11/16 07:07:46;;;;;;;3.16;1.81;;;;;;;19.24;57.27;100373.77;;;;-58
2020/11/16 07:10:46;;;;;;;2.87;1.68;;;;;;;19.24;57.25;100369.78;;;;-58
2020/11/16 07:13:47;;;;;;;4.92;1.77;;;;;;;19.23;57.28;100362.53;;;;-58
2020/11/16 07:16:46;;;;;;;4.07;1.99;;;;;;;19.23;57.27;100365.78;;;;-59
2020/11/16 07:19:46;;;;;;;4.53;1.91;;;;;;;19.23;57.33;100361.15;;;;-58
2020/11/16 07:22:46;;;;;;;3.45;1.85;;;;;;;19.23;57.31;100366.36;;;;-59
2020/11/16 07:25:46;;;;;;;2.73;1.71;;;;;;;19.22;57.35;100376.52;;;;-58
2020/11/16 07:28:46;;;;;;;4.09;1.77;;;;;;;19.22;57.34;100383.50;;;;-58
2020/11/16 07:31:46;;;;;;;3.80;2.13;;;;;;;19.22;57.37;100393.00;;;;-58
2020/11/16 07:34:46;;;;;;;2.83;1.71;;;;;;;19.22;57.33;100405.20;;;;-61
2020/11/16 07:37:46;;;;;;;4.56;1.88;;;;;;;19.22;57.39;100414.53;;;;-59
2020/11/16 07:40:46;;;;;;;2.99;1.66;;;;;;;19.21;57.41;100429.95;;;;-60
2020/11/16 07:43:46;;;;;;;3.75;1.79;;;;;;;19.21;57.39;100435.64;;;;-60
2020/11/16 07:46:46;;;;;;;3.41;1.77;;;;;;;19.21;57.35;100440.92;;;;-59
2020/11/16 07:49:46;;;;;;;3.21;1.65;;;;;;;19.20;57.38;100439.30;;;;-59
2020/11/16 07:52:46;;;;;;;2.70;1.81;;;;;;;19.21;57.43;100448.72;;;;-59
2020/11/16 07:55:46;;;;;;;3.33;1.75;;;;;;;19.20;57.38;100444.41;;;;-60
2020/11/16 07:58:46;;;;;;;3.51;1.60;;;;;;;19.20;57.40;100449.78;;;;-53
2020/11/16 08:01:46;;;;;;;2.96;1.60;;;;;;;19.20;57.43;100453.68;;;;-53
2020/11/16 08:04:46;;;;;;;2.54;1.70;;;;;;;19.20;57.47;100456.60;;;;-53
2020/11/16 08:07:46;;;;;;;2.94;1.68;;;;;;;19.20;57.46;100456.04;;;;-52
2020/11/16 08:10:46;;;;;;;3.45;1.70;;;;;;;19.20;57.48;100456.20;;;;-52
2020/11/16 08:13:46;;;;;;;3.04;1.79;;;;;;;19.20;57.50;100456.77;;;;-52
2020/11/16 08:16:46;;;;;;;3.33;1.60;;;;;;;19.20;57.50;100449.86;;;;-53
2020/11/16 08:19:46;;;;;;;2.83;1.59;;;;;;;19.19;57.48;100447.48;;;;-52
2020/11/16 08:22:46;;;;;;;3.01;1.63;;;;;;;19.18;57.47;100461.22;;;;-52
2020/11/16 08:25:46;;;;;;;6.40;1.81;;;;;;;19.21;57.71;100461.72;;;;-61
2020/11/16 08:28:46;;;;;;;4.21;1.65;;;;;;;19.22;57.80;100462.95;;;;-61
2020/11/16 08:31:46;;;;;;;5.86;1.99;;;;;;;19.25;57.94;100463.37;;;;-55
2020/11/16 08:34:46;;;;;;;5.40;1.66;;;;;;;19.29;58.15;100472.17;;;;-52
2020/11/16 08:37:46;;;;;;;3.87;1.59;;;;;;;19.35;58.35;100471.49;;;;-53
2020/11/16 08:40:46;;;;;;;3.78;1.60;;;;;;;19.39;58.35;100474.45;;;;-51
2020/11/16 08:43:46;;;;;;;2.94;1.47;;;;;;;19.44;58.32;100482.13;;;;-50
2020/11/16 08:46:46;;;;;;;2.57;1.55;;;;;;;19.50;58.62;100486.78;;;;-60
2020/11/16 08:49:46;;;;;;;4.79;1.65;;;;;;;19.56;58.45;100489.34;;;;-53
2020/11/16 08:52:46;;;;;;;3.09;1.51;;;;;;;19.61;58.67;100491.18;;;;-57
2020/11/16 08:55:46;;;;;;;2.37;1.60;;;;;;;19.67;58.82;100502.20;;;;-57
2020/11/16 08:58:46;;;;;;;3.16;1.47;;;;;;;19.72;58.85;100511.44;;;;-46
2020/11/16 09:01:46;;;;;;;2.88;1.40;;;;;;;19.77;58.78;100517.96;;;;-47
2020/11/16 09:04:46;;;;;;;2.76;1.45;;;;;;;19.81;58.60;100514.24;;;;-50
2020/11/16 09:07:46;;;;;;;3.98;1.61;;;;;;;19.85;58.83;100512.89;;;;-59
2020/11/16 09:10:46;;;;;;;4.76;1.60;;;;;;;19.89;58.82;100513.56;;;;-50
2020/11/16 09:13:46;;;;;;;3.35;1.59;;;;;;;19.92;58.80;100507.95;;;;-57
2020/11/16 09:16:46;;;;;;;4.37;1.74;;;;;;;19.96;57.87;100512.53;;;;-51
2020/11/16 09:19:46;;;;;;;5.20;1.62;;;;;;;19.99;58.16;100516.22;;;;-52
2020/11/16 09:22:46;;;;;;;2.65;1.45;;;;;;;20.01;57.76;100512.66;;;;-52
2020/11/16 09:25:46;;;;;;;3.96;1.59;;;;;;;20.02;57.62;100508.25;;;;-56
2020/11/16 09:28:46;;;;;;;3.59;1.55;;;;;;;20.04;57.67;100519.89;;;;-57
2020/11/16 09:31:46;;;;;;;4.98;1.59;;;;;;;20.07;57.90;100518.87;;;;-52
2020/11/16 09:34:46;;;;;;;2.55;1.47;;;;;;;20.07;57.60;100529.44;;;;-52
2020/11/16 09:37:46;;;;;;;2.76;1.60;;;;;;;20.10;58.17;100537.09;;;;-56
2020/11/16 09:40:46;;;;;;;5.83;1.60;;;;;;;20.12;58.11;100538.98;;;;-51
2020/11/16 09:43:46;;;;;;;6.57;1.75;;;;;;;20.10;57.71;100550.59;;;;-49
2020/11/16 09:46:46;;;;;;;6.01;1.70;;;;;;;20.09;57.57;100563.13;;;;-51
2020/11/16 09:49:46;;;;;;;3.42;1.85;;;;;;;20.11;58.17;100566.97;;;;-51
2020/11/16 09:52:46;;;;;;;4.84;1.93;;;;;;;20.14;57.50;100575.84;;;;-51
2020/11/16 09:55:46;;;;;;;7.75;2.01;;;;;;;20.19;58.63;100582.69;;;;-54
2020/11/16 09:58:46;;;;;;;6.21;1.96;;;;;;;20.23;58.67;100584.27;;;;-54
2020/11/16 10:01:46;;;;;;;5.19;1.89;;;;;;;20.25;58.67;100584.92;;;;-49
2020/11/16 10:04:46;;;;;;;5.04;1.73;;;;;;;20.32;59.29;100592.70;;;;-50
2020/11/16 10:07:46;;;;;;;7.54;1.69;;;;;;;20.39;59.33;100593.38;;;;-54
2020/11/16 10:10:46;;;;;;;3.81;1.87;;;;;;;20.42;58.33;100591.21;;;;-58
2020/11/16 10:13:46;;;;;;;4.34;1.66;;;;;;;20.44;57.98;100596.73;;;;-50
2020/11/16 10:16:46;;;;;;;4.61;1.77;;;;;;;20.47;58.19;100597.89;;;;-61
2020/11/16 10:19:46;;;;;;;5.25;1.78;;;;;;;20.50;58.13;100596.27;;;;-56
2020/11/16 10:22:46;;;;;;;2.40;1.53;;;;;;;20.53;58.33;100602.57;;;;-49
2020/11/16 10:25:46;;;;;;;5.41;1.77;;;;;;;20.56;58.76;100603.78;;;;-54
2020/11/16 10:28:46;;;;;;;3.23;1.56;;;;;;;20.58;58.32;100609.50;;;;-55
2020/11/16 10:31:46;;;;;;;3.01;1.53;;;;;;;20.61;58.72;100613.46;;;;-57
2020/11/16 10:34:46;;;;;;;2.89;1.57;;;;;;;20.62;58.35;100609.06;;;;-53
2020/11/16 10:37:46;;;;;;;4.81;1.56;;;;;;;20.64;58.03;100620.88;;;;-50
2020/11/16 10:40:46;;;;;;;6.19;1.73;;;;;;;20.65;57.94;100616.63;;;;-56
2020/11/16 10:43:46;;;;;;;2.91;1.58;;;;;;;20.67;58.42;100624.23;;;;-55
2020/11/16 10:46:46;;;;;;;5.05;1.63;;;;;;;20.67;57.48;100618.05;;;;-56
2020/11/16 10:49:46;;;;;;;4.23;1.62;;;;;;;20.69;57.91;100611.77;;;;-57
2020/11/16 10:52:46;;;;;;;2.49;1.42;;;;;;;20.72;58.49;100616.03;;;;-51
2020/11/16 10:55:46;;;;;;;3.92;1.50;;;;;;;20.73;58.43;100614.17;;;;-59
2020/11/16 10:58:46;;;;;;;3.05;1.62;;;;;;;20.75;58.25;100614.83;;;;-59
2020/11/16 11:01:46;;;;;;;3.08;1.61;;;;;;;20.76;58.43;100613.27;;;;-54
2020/11/16 11:04:46;;;;;;;3.30;1.73;;;;;;;20.77;58.42;100615.89;;;;-56
2020/11/16 11:07:46;;;;;;;4.40;1.60;;;;;;;20.79;58.34;100612.70;;;;-50
2020/11/16 11:10:46;;;;;;;2.76;1.51;;;;;;;20.79;57.63;100605.70;;;;-54
2020/11/16 11:13:46;;;;;;;2.59;1.40;;;;;;;20.82;58.45;100604.58;;;;-58
2020/11/16 11:16:46;;;;;;;2.50;1.47;;;;;;;20.84;58.24;100610.45;;;;-54
2020/11/16 11:19:46;;;;;;;1.95;1.47;;;;;;;20.85;57.80;100607.17;;;;-54
2020/11/16 11:22:46;;;;;;;2.05;1.45;;;;;;;20.84;57.54;100612.89;;;;-60
2020/11/16 11:25:46;;;;;;;5.20;1.55;;;;;;;20.85;57.53;100617.61;;;;-54
2020/11/16 11:28:46;;;;;;;3.11;1.25;;;;;;;20.86;57.38;100618.69;;;;-60
2020/11/16 11:31:46;;;;;;;3.60;1.49;;;;;;;20.86;57.35;100618.84;;;;-62
2020/11/16 11:34:46;;;;;;;2.47;1.50;;;;;;;20.88;57.23;100626.68;;;;-55
2020/11/16 11:37:46;;;;;;;3.09;1.40;;;;;;;20.87;57.23;100630.41;;;;-51
2020/11/16 11:40:46;;;;;;;4.37;1.61;;;;;;;20.88;57.25;100633.59;;;;-54
2020/11/16 11:43:46;;;;;;;2.04;1.40;;;;;;;20.89;57.32;100635.14;;;;-54
2020/11/16 11:46:46;;;;;;;2.09;1.45;;;;;;;20.89;57.15;100638.72;;;;-55
2020/11/16 11:49:46;;;;;;;2.69;1.43;;;;;;;20.88;57.00;100638.41;;;;-55
2020/11/16 11:52:46;;;;;;;3.57;1.40;;;;;;;20.89;57.01;100648.02;;;;-54
2020/11/16 11:55:46;;;;;;;4.11;1.49;;;;;;;20.89;57.28;100647.69;;;;-52
2020/11/16 11:58:46;;;;;;;3.87;1.56;;;;;;;20.84;55.63;100649.31;;;;-50
2020/11/16 12:01:46;;;;;;;6.13;1.60;;;;;;;20.86;56.47;100657.78;;;;-50
2020/11/16 12:04:46;;;;;;;6.78;1.79;;;;;;;20.87;56.37;100663.56;;;;-55
2020/11/16 12:07:46;;;;;;;4.86;1.60;;;;;;;20.87;56.56;100651.58;;;;-55
2020/11/16 12:10:46;;;;;;;2.66;1.50;;;;;;;20.88;56.67;100656.09;;;;-57
2020/11/16 12:13:46;;;;;;;2.24;1.31;;;;;;;20.88;56.69;100656.33;;;;-57
2020/11/16 12:16:46;;;;;;;7.11;1.75;;;;;;;20.88;56.82;100652.73;;;;-55
2020/11/16 12:19:46;;;;;;;2.79;1.55;;;;;;;20.88;56.61;100652.91;;;;-58
2020/11/16 12:22:46;;;;;;;3.85;1.50;;;;;;;20.89;56.87;100655.50;;;;-51
2020/11/16 12:25:46;;;;;;;4.67;1.75;;;;;;;20.88;56.85;100656.89;;;;-52
2020/11/16 12:28:46;;;;;;;10.83;1.96;;;;;;;20.89;56.78;100650.53;;;;-53
2020/11/16 12:31:46;;;;;;;5.55;1.48;;;;;;;20.89;56.34;100646.62;;;;-56
2020/11/16 12:34:46;;;;;;;3.82;1.70;;;;;;;20.90;56.54;100646.73;;;;-53
2020/11/16 12:37:46;;;;;;;3.67;1.49;;;;;;;20.91;56.78;100652.09;;;;-54
2020/11/16 12:40:46;;;;;;;4.42;1.63;;;;;;;20.90;56.03;100652.91;;;;-57
2020/11/16 12:43:48;;;;;;;3.58;1.51;;;;;;;20.91;56.21;100654.53;;;;-52
2020/11/16 12:46:46;;;;;;;3.67;1.72;;;;;;;20.92;56.67;100660.75;;;;-56
2020/11/16 12:49:46;;;;;;;4.37;1.73;;;;;;;20.92;56.56;100671.58;;;;-50
2020/11/16 12:52:46;;;;;;;5.51;1.73;;;;;;;20.93;56.68;100675.08;;;;-51
2020/11/16 12:55:46;;;;;;;3.85;1.63;;;;;;;20.93;56.22;100677.11;;;;-56
2020/11/16 12:58:46;;;;;;;2.52;1.46;;;;;;;20.93;56.38;100676.12;;;;-55
2020/11/16 13:01:46;;;;;;;4.37;1.75;;;;;;;20.94;56.00;100677.20;;;;-54
2020/11/16 13:04:46;;;;;;;2.53;1.50;;;;;;;20.94;55.91;100685.84;;;;-52
2020/11/16 13:07:46;;;;;;;3.75;1.49;;;;;;;20.94;55.76;100694.23;;;;-59
2020/11/16 13:10:46;;;;;;;4.31;1.79;;;;;;;20.94;56.03;100699.86;;;;-59
2020/11/16 13:13:46;;;;;;;2.93;1.65;;;;;;;20.94;55.69;100697.41;;;;-58
2020/11/16 13:16:46;;;;;;;6.06;1.63;;;;;;;20.95;55.58;100708.97;;;;-52
2020/11/16 13:19:46;;;;;;;2.37;1.40;;;;;;;20.96;55.80;100711.66;;;;-44
2020/11/16 13:22:46;;;;;;;2.53;1.40;;;;;;;20.96;55.95;100712.09;;;;-50
2020/11/16 13:25:46;;;;;;;2.90;1.49;;;;;;;20.96;55.87;100716.16;;;;-50
2020/11/16 13:28:46;;;;;;;2.58;1.51;;;;;;;20.98;56.19;100716.58;;;;-50
2020/11/16 13:35:46;;;;;;;6.73;1.68;;;;;;;21.00;56.25;100714.60;;;;-54
2020/11/16 13:38:46;;;;;;;2.67;1.60;;;;;;;21.02;56.38;100715.18;;;;-53
2020/11/16 13:41:46;;;;;;;2.37;1.54;;;;;;;21.02;56.14;100713.23;;;;-58
2020/11/16 13:44:46;;;;;;;2.65;1.47;;;;;;;21.03;56.23;100710.80;;;;-54
2020/11/16 13:47:46;;;;;;;3.17;1.42;;;;;;;21.04;56.66;100714.13;;;;-59
2020/11/16 13:50:47;;;;;;;5.12;1.50;;;;;;;21.07;56.87;100720.67;;;;-57
2020/11/16 13:53:46;;;;;;;2.85;1.37;;;;;;;21.07;56.88;100724.58;;;;-51
2020/11/16 13:56:46;;;;;;;6.18;1.63;;;;;;;21.02;55.84;100719.75;;;;-58
2020/11/16 13:59:46;;;;;;;5.09;1.66;;;;;;;21.03;56.22;100721.31;;;;-50
2020/11/16 14:02:46;;;;;;;4.74;1.50;;;;;;;21.04;55.93;100722.53;;;;-51
2020/11/16 14:05:46;;;;;;;4.06;1.51;;;;;;;21.04;55.88;100726.22;;;;-52
2020/11/16 14:08:46;;;;;;;1.93;1.46;;;;;;;21.05;55.95;100733.86;;;;-58
2020/11/16 14:11:46;;;;;;;2.18;1.41;;;;;;;21.05;55.96;100729.71;;;;-58
2020/11/16 14:14:46;;;;;;;3.53;1.55;;;;;;;21.05;55.96;100731.75;;;;-52
2020/11/16 14:17:46;;;;;;;2.00;1.33;;;;;;;21.05;56.01;100730.94;;;;-58
2020/11/16 14:20:46;;;;;;;3.22;1.31;;;;;;;21.06;56.06;100734.44;;;;-58
2020/11/16 14:23:46;;;;;;;2.13;1.49;;;;;;;21.07;56.18;100731.59;;;;-52
2020/11/16 14:26:46;;;;;;;6.83;1.70;;;;;;;21.09;56.71;100732.17;;;;-55
2020/11/16 14:29:46;;;;;;;3.64;1.39;;;;;;;21.12;57.12;100737.39;;;;-55
2020/11/16 14:32:46;;;;;;;6.27;1.66;;;;;;;21.15;57.18;100738.97;;;;-52
2020/11/16 14:35:46;;;;;;;6.45;1.50;;;;;;;21.17;57.95;100736.94;;;;-49
2020/11/16 14:38:47;;;;;;;9.69;1.68;;;;;;;21.19;58.25;100741.51;;;;-52
2020/11/16 14:41:46;;;;;;;5.61;1.39;;;;;;;21.22;59.19;100745.02;;;;-57
2020/11/16 14:44:46;;;;;;;6.81;1.51;;;;;;;21.24;58.78;100749.09;;;;-62
2020/11/16 14:47:46;;;;;;;4.92;1.49;;;;;;;21.27;59.36;100747.30;;;;-63
2020/11/16 14:50:46;;;;;;;5.49;1.47;;;;;;;21.29;59.52;100747.88;;;;-58
2020/11/16 14:53:46;;;;;;;3.86;1.57;;;;;;;21.32;59.30;100758.02;;;;-55
2020/11/16 14:56:46;;;;;;;5.41;1.56;;;;;;;21.33;59.39;100760.48;;;;-53
2020/11/16 14:59:46;;;;;;;5.86;1.38;;;;;;;21.35;59.41;100766.03;;;;-52
2020/11/16 15:02:46;;;;;;;5.39;1.58;;;;;;;21.35;59.12;100766.91;;;;-60
2020/11/16 15:05:46;;;;;;;9.84;1.95;;;;;;;21.36;59.33;100781.84;;;;-53
2020/11/16 15:08:46;;;;;;;9.95;1.63;;;;;;;21.39;59.51;100789.34;;;;-47
2020/11/16 15:11:46;;;;;;;6.53;1.81;;;;;;;21.40;59.50;100797.59;;;;-57
2020/11/16 15:14:46;;;;;;;5.31;1.50;;;;;;;21.44;59.66;100804.16;;;;-50
2020/11/16 15:17:46;;;;;;;5.68;1.71;;;;;;;21.43;59.33;100807.73;;;;-50
2020/11/16 15:20:46;;;;;;;5.04;1.64;;;;;;;21.44;59.22;100820.55;;;;-46
2020/11/16 15:23:46;;;;;;;7.00;1.47;;;;;;;21.43;59.02;100823.70;;;;-58
2020/11/16 15:26:46;;;;;;;4.70;1.41;;;;;;;21.44;59.15;100833.11;;;;-50
2020/11/16 15:29:46;;;;;;;2.81;1.51;;;;;;;21.44;59.64;100847.86;;;;-51
2020/11/16 15:32:46;;;;;;;6.80;1.62;;;;;;;21.46;59.37;100852.36;;;;-51
2020/11/16 15:35:46;;;;;;;10.09;1.65;;;;;;;21.47;59.04;100857.41;;;;-51
2020/11/16 15:38:46;;;;;;;7.37;1.70;;;;;;;21.47;58.59;100864.33;;;;-60
2020/11/16 15:41:46;;;;;;;7.94;1.90;;;;;;;21.45;58.16;100868.48;;;;-58
2020/11/16 15:44:46;;;;;;;5.43;1.74;;;;;;;21.42;57.16;100880.06;;;;-59
2020/11/16 15:47:46;;;;;;;10.01;1.83;;;;;;;21.41;56.73;100881.23;;;;-54
2020/11/16 15:50:46;;;;;;;8.72;1.71;;;;;;;21.41;57.40;100883.03;;;;-54
2020/11/16 15:53:46;;;;;;;11.53;1.80;;;;;;;21.39;57.13;100886.77;;;;-50
2020/11/16 15:56:46;;;;;;;5.61;1.63;;;;;;;21.36;56.38;100890.77;;;;-59
2020/11/16 15:59:46;;;;;;;6.18;1.61;;;;;;;21.33;57.05;100894.34;;;;-52
2020/11/16 16:02:46;;;;;;;8.56;1.83;;;;;;;21.34;57.20;100900.12;;;;-60
2020/11/16 16:05:46;;;;;;;5.37;1.60;;;;;;;21.37;56.98;100912.11;;;;-61
2020/11/16 16:08:46;;;;;;;6.17;1.66;;;;;;;21.39;57.08;100916.55;;;;-52
2020/11/16 16:11:46;;;;;;;4.31;1.47;;;;;;;21.43;57.28;100925.96;;;;-51
2020/11/16 16:14:46;;;;;;;5.03;1.69;;;;;;;21.44;57.13;100930.88;;;;-61
2020/11/16 16:17:46;;;;;;;6.73;1.61;;;;;;;21.47;57.25;100937.97;;;;-60
2020/11/16 16:20:46;;;;;;;5.10;1.49;;;;;;;21.46;56.68;100934.80;;;;-53
2020/11/16 16:23:46;;;;;;;4.28;1.43;;;;;;;21.48;57.13;100933.83;;;;-59
2020/11/16 16:26:46;;;;;;;4.99;1.58;;;;;;;21.49;56.64;100931.13;;;;-61
2020/11/16 16:29:46;;;;;;;3.41;1.38;;;;;;;21.51;57.13;100943.79;;;;-60
2020/11/16 16:32:46;;;;;;;2.99;1.41;;;;;;;21.52;57.11;100948.45;;;;-53
2020/11/16 16:35:46;;;;;;;5.07;1.52;;;;;;;21.53;57.38;100954.00;;;;-47
2020/11/16 16:38:46;;;;;;;5.96;1.60;;;;;;;21.55;57.72;100953.36;;;;-50
2020/11/16 16:41:46;;;;;;;4.08;1.45;;;;;;;21.56;57.43;100959.14;;;;-56
2020/11/16 16:44:46;;;;;;;3.66;1.47;;;;;;;21.55;57.29;100959.14;;;;-53
2020/11/16 16:47:46;;;;;;;4.30;1.56;;;;;;;21.56;57.06;100961.26;;;;-51